createdAt,value
2018-06-17T00:00:14.237Z,1011.8
2018-06-17T00:01:23.670Z,1011.76
2018-06-17T00:02:33.114Z,1011.78
2018-06-17T00:03:42.603Z,1011.79
2018-06-17T00:04:52.276Z,1011.82
2018-06-17T00:06:01.570Z,1011.89
2018-06-17T00:07:10.806Z,1011.85
2018-06-17T00:08:20.006Z,1011.84
2018-06-17T00:09:29.703Z,1011.85
2018-06-17T00:10:38.617Z,1011.87
2018-06-17T00:11:48.359Z,1011.85
2018-06-17T00:12:58.091Z,1011.85
2018-06-17T00:14:07.784Z,1011.85
2018-06-17T00:15:16.953Z,1011.94
2018-06-17T00:16:26.151Z,1011.88
2018-06-17T00:17:35.583Z,1011.91
2018-06-17T00:18:45.341Z,1011.93
2018-06-17T00:19:54.825Z,1011.89
2018-06-17T00:21:04.039Z,1011.94
2018-06-17T00:22:12.956Z,1011.95
2018-06-17T00:23:21.872Z,1011.97
2018-06-17T00:24:31.325Z,1011.99
2018-06-17T00:25:40.649Z,1012.02
2018-06-17T00:26:49.847Z,1011.99
2018-06-17T00:27:58.763Z,1011.99
2018-06-17T00:29:07.733Z,1011.98
2018-06-17T00:30:17.186Z,1011.95
2018-06-17T00:31:26.638Z,1011.95
2018-06-17T00:32:36.064Z,1011.93
2018-06-17T00:33:46.016Z,1011.98
2018-06-17T00:34:55.461Z,1011.97
2018-06-17T00:36:05.011Z,1011.99
2018-06-17T00:37:14.604Z,1011.94
2018-06-17T00:38:25.120Z,1011.89
2018-06-17T00:39:35.375Z,1011.88
2018-06-17T00:40:44.638Z,1011.86
2018-06-17T00:41:53.809Z,1011.88
2018-06-17T00:43:03.542Z,1011.93
2018-06-17T00:44:13.008Z,1011.96
2018-06-17T00:45:22.411Z,1012
2018-06-17T00:46:31.833Z,1011.95
2018-06-17T00:47:41.778Z,1011.95
2018-06-17T00:48:50.949Z,1011.97
2018-06-17T00:50:00.895Z,1011.97
2018-06-17T00:51:10.323Z,1011.96
2018-06-17T00:52:19.557Z,1011.98
2018-06-17T00:53:29.056Z,1012
2018-06-17T00:54:38.517Z,1011.98
2018-06-17T00:55:47.491Z,1012
2018-06-17T00:56:56.936Z,1012.04
2018-06-17T00:58:06.387Z,1012.03
2018-06-17T00:59:15.825Z,1012.08
2018-06-17T01:00:25.012Z,1012.06
2018-06-17T01:01:34.968Z,1012.09
2018-06-17T01:02:44.653Z,1012.08
2018-06-17T01:03:54.391Z,1012.12
2018-06-17T01:05:03.565Z,1012.12
2018-06-17T01:06:12.989Z,1012.13
2018-06-17T01:07:22.489Z,1012.11
2018-06-17T01:08:32.477Z,1012.13
2018-06-17T01:09:41.657Z,1012.1
2018-06-17T01:10:51.079Z,1012.05
2018-06-17T01:12:00.280Z,1012.07
2018-06-17T01:13:09.199Z,1012.07
2018-06-17T01:14:19.135Z,1012.14
2018-06-17T01:15:28.336Z,1012.15
2018-06-17T01:16:37.531Z,1012.15
2018-06-17T01:17:47.284Z,1012.19
2018-06-17T01:18:56.321Z,1012.25
2018-06-17T01:20:06.197Z,1012.2
2018-06-17T01:21:15.396Z,1012.23
2018-06-17T01:22:24.827Z,1012.16
2018-06-17T01:23:33.769Z,1012.13
2018-06-17T01:24:43.008Z,1012.19
2018-06-17T01:25:52.470Z,1012.16
2018-06-17T01:27:02.179Z,1012.18
2018-06-17T01:28:11.623Z,1012.16
2018-06-17T01:29:20.852Z,1012.17
2018-06-17T01:30:30.567Z,1012.2
2018-06-17T01:31:40.550Z,1012.23
2018-06-17T01:32:50.000Z,1012.25
2018-06-17T01:33:59.978Z,1012.23
2018-06-17T01:35:09.706Z,1012.18
2018-06-17T01:36:18.614Z,1012.21
2018-06-17T01:37:28.127Z,1012.15
2018-06-17T01:38:37.276Z,1012.17
2018-06-17T01:39:46.441Z,1012.16
2018-06-17T01:40:56.102Z,1012.16
2018-06-17T01:42:05.525Z,1012.19
2018-06-17T01:43:14.445Z,1012.21
2018-06-17T01:44:24.127Z,1012.21
2018-06-17T01:45:33.607Z,1012.19
2018-06-17T01:46:42.791Z,1012.22
2018-06-17T01:47:52.500Z,1012.19
2018-06-17T01:49:01.682Z,1012.21
2018-06-17T01:50:11.114Z,1012.23
2018-06-17T01:51:20.556Z,1012.21
2018-06-17T01:52:30.257Z,1012.25
2018-06-17T01:53:39.476Z,1012.28
2018-06-17T01:54:48.924Z,1012.31
2018-06-17T01:55:58.155Z,1012.3
2018-06-17T01:57:07.108Z,1012.3
2018-06-17T01:58:16.535Z,1012.28
2018-06-17T01:59:26.512Z,1012.26
2018-06-17T02:00:35.943Z,1012.25
2018-06-17T02:01:45.619Z,1012.23
2018-06-17T02:02:54.795Z,1012.25
2018-06-17T02:04:04.227Z,1012.25
2018-06-17T02:05:13.672Z,1012.23
2018-06-17T02:06:23.096Z,1012.2
2018-06-17T02:07:32.314Z,1012.22
2018-06-17T02:08:41.492Z,1012.18
2018-06-17T02:09:51.232Z,1012.21
2018-06-17T02:11:00.402Z,1012.2
2018-06-17T02:12:09.575Z,1012.21
2018-06-17T02:13:18.748Z,1012.22
2018-06-17T02:14:27.916Z,1012.21
2018-06-17T02:15:37.356Z,1012.21
2018-06-17T02:16:46.804Z,1012.19
2018-06-17T02:17:56.482Z,1012.18
2018-06-17T02:19:05.479Z,1012.19
2018-06-17T02:20:14.412Z,1012.18
2018-06-17T02:21:23.869Z,1012.21
2018-06-17T02:22:33.293Z,1012.19
2018-06-17T02:23:42.723Z,1012.19
2018-06-17T02:24:52.433Z,1012.2
2018-06-17T02:26:01.868Z,1012.17
2018-06-17T02:27:11.316Z,1012.21
2018-06-17T02:28:20.540Z,1012.21
2018-06-17T02:29:29.964Z,1012.22
2018-06-17T02:30:39.449Z,1012.19
2018-06-17T02:31:49.139Z,1012.19
2018-06-17T02:32:58.098Z,1012.18
2018-06-17T02:34:07.526Z,1012.21
2018-06-17T02:35:17.207Z,1012.2
2018-06-17T02:36:26.646Z,1012.23
2018-06-17T02:37:36.359Z,1012.23
2018-06-17T02:38:45.799Z,1012.24
2018-06-17T02:39:55.252Z,1012.25
2018-06-17T02:41:05.268Z,1012.25
2018-06-17T02:42:14.717Z,1012.23
2018-06-17T02:43:24.429Z,1012.23
2018-06-17T02:44:34.137Z,1012.23
2018-06-17T02:45:43.599Z,1012.22
2018-06-17T02:46:53.024Z,1012.24
2018-06-17T02:48:02.731Z,1012.26
2018-06-17T02:49:12.688Z,1012.29
2018-06-17T02:50:22.181Z,1012.32
2018-06-17T02:51:32.139Z,1012.31
2018-06-17T02:52:41.579Z,1012.33
2018-06-17T02:53:51.282Z,1012.34
2018-06-17T02:55:00.450Z,1012.28
2018-06-17T02:56:09.914Z,1012.3
2018-06-17T02:57:19.625Z,1012.27
2018-06-17T02:58:29.323Z,1012.3
2018-06-17T02:59:38.741Z,1012.34
2018-06-17T03:00:48.689Z,1012.33
2018-06-17T03:01:58.384Z,1012.3
2018-06-17T03:03:08.107Z,1012.32
2018-06-17T03:04:17.547Z,1012.3
2018-06-17T03:05:27.261Z,1012.34
2018-06-17T03:06:37.055Z,1012.31
2018-06-17T03:07:46.494Z,1012.34
2018-06-17T03:08:55.933Z,1012.36
2018-06-17T03:10:05.371Z,1012.35
2018-06-17T03:11:14.547Z,1012.39
2018-06-17T03:12:24.014Z,1012.43
2018-06-17T03:13:33.706Z,1012.37
2018-06-17T03:14:43.419Z,1012.39
2018-06-17T03:15:53.102Z,1012.43
2018-06-17T03:17:02.276Z,1012.41
2018-06-17T03:18:11.722Z,1012.39
2018-06-17T03:19:21.152Z,1012.39
2018-06-17T03:20:30.596Z,1012.41
2018-06-17T03:21:40.547Z,1012.43
2018-06-17T03:22:49.965Z,1012.37
2018-06-17T03:23:58.629Z,1012.44
2018-06-17T03:25:08.311Z,1012.39
2018-06-17T03:26:17.486Z,1012.4
2018-06-17T03:27:27.172Z,1012.41
2018-06-17T03:28:36.373Z,1012.42
2018-06-17T03:29:45.780Z,1012.42
2018-06-17T03:30:54.961Z,1012.47
2018-06-17T03:32:04.436Z,1012.43
2018-06-17T03:33:13.884Z,1012.4
2018-06-17T03:34:23.051Z,1012.37
2018-06-17T03:35:32.228Z,1012.39
2018-06-17T03:36:41.646Z,1012.39
2018-06-17T03:37:50.811Z,1012.39
2018-06-17T03:38:59.983Z,1012.41
2018-06-17T03:40:09.427Z,1012.42
2018-06-17T03:41:19.107Z,1012.43
2018-06-17T03:42:28.816Z,1012.42
2018-06-17T03:43:38.237Z,1012.4
2018-06-17T03:44:47.420Z,1012.38
2018-06-17T03:45:56.590Z,1012.4
2018-06-17T03:47:06.016Z,1012.39
2018-06-17T03:48:15.706Z,1012.4
2018-06-17T03:49:24.887Z,1012.46
2018-06-17T03:50:34.377Z,1012.45
2018-06-17T03:51:43.804Z,1012.5
2018-06-17T03:52:53.023Z,1012.43
2018-06-17T03:54:02.685Z,1012.42
2018-06-17T03:55:12.142Z,1012.39
2018-06-17T03:56:21.838Z,1012.42
2018-06-17T03:57:31.515Z,1012.4
2018-06-17T03:58:40.422Z,1012.39
2018-06-17T03:59:49.842Z,1012.43
2018-06-17T04:00:59.536Z,1012.42
2018-06-17T04:02:08.974Z,1012.44
2018-06-17T04:03:18.147Z,1012.47
2018-06-17T04:04:27.841Z,1012.45
2018-06-17T04:05:37.803Z,1012.52
2018-06-17T04:06:47.234Z,1012.5
2018-06-17T04:07:56.406Z,1012.55
2018-06-17T04:09:05.836Z,1012.55
2018-06-17T04:10:15.301Z,1012.58
2018-06-17T04:11:25.238Z,1012.57
2018-06-17T04:12:34.150Z,1012.53
2018-06-17T04:13:43.324Z,1012.52
2018-06-17T04:14:53.058Z,1012.52
2018-06-17T04:16:02.096Z,1012.52
2018-06-17T04:17:11.875Z,1012.52
2018-06-17T04:18:21.321Z,1012.53
2018-06-17T04:19:31.018Z,1012.59
2018-06-17T04:20:40.195Z,1012.58
2018-06-17T04:21:49.615Z,1012.6
2018-06-17T04:22:59.077Z,1012.6
2018-06-17T04:24:08.225Z,1012.54
2018-06-17T04:25:17.749Z,1012.56
2018-06-17T04:26:28.002Z,1012.54
2018-06-17T04:27:37.414Z,1012.55
2018-06-17T04:28:46.586Z,1012.56
2018-06-17T04:29:55.761Z,1012.56
2018-06-17T04:31:05.237Z,1012.56
2018-06-17T04:32:14.394Z,1012.56
2018-06-17T04:33:24.068Z,1012.6
2018-06-17T04:34:33.247Z,1012.59
2018-06-17T04:35:42.946Z,1012.58
2018-06-17T04:36:52.637Z,1012.61
2018-06-17T04:38:01.277Z,1012.6
2018-06-17T04:39:10.698Z,1012.63
2018-06-17T04:40:19.853Z,1012.64
2018-06-17T04:41:29.780Z,1012.63
2018-06-17T04:42:38.941Z,1012.62
2018-06-17T04:43:48.114Z,1012.61
2018-06-17T04:44:57.297Z,1012.62
2018-06-17T04:46:06.463Z,1012.63
2018-06-17T04:47:15.376Z,1012.62
2018-06-17T04:48:24.555Z,1012.6
2018-06-17T04:49:34.136Z,1012.58
2018-06-17T04:50:43.822Z,1012.59
2018-06-17T04:51:53.510Z,1012.6
2018-06-17T04:53:03.193Z,1012.58
2018-06-17T04:54:12.625Z,1012.56
2018-06-17T04:55:22.305Z,1012.62
2018-06-17T04:56:32.008Z,1012.63
2018-06-17T04:57:41.433Z,1012.61
2018-06-17T04:58:50.864Z,1012.61
2018-06-17T05:00:00.604Z,1012.59
2018-06-17T05:01:10.845Z,1012.61
2018-06-17T05:02:19.757Z,1012.59
2018-06-17T05:03:28.937Z,1012.58
2018-06-17T05:04:38.612Z,1012.57
2018-06-17T05:05:48.048Z,1012.62
2018-06-17T05:06:57.475Z,1012.61
2018-06-17T05:08:07.158Z,1012.62
2018-06-17T05:09:17.118Z,1012.63
2018-06-17T05:10:26.031Z,1012.63
2018-06-17T05:11:35.204Z,1012.61
2018-06-17T05:12:44.632Z,1012.63
2018-06-17T05:13:53.834Z,1012.62
2018-06-17T05:15:03.023Z,1012.6
2018-06-17T05:16:11.931Z,1012.62
2018-06-17T05:17:21.630Z,1012.56
2018-06-17T05:18:31.065Z,1012.6
2018-06-17T05:19:40.484Z,1012.58
2018-06-17T05:20:49.910Z,1012.59
2018-06-17T05:21:59.077Z,1012.59
2018-06-17T05:23:08.514Z,1012.6
2018-06-17T05:24:17.460Z,1012.61
2018-06-17T05:25:26.632Z,1012.61
2018-06-17T05:26:36.312Z,1012.68
2018-06-17T05:27:45.997Z,1012.63
2018-06-17T05:28:55.172Z,1012.67
2018-06-17T05:30:04.876Z,1012.68
2018-06-17T05:31:14.860Z,1012.65
2018-06-17T05:32:24.293Z,1012.62
2018-06-17T05:33:34.301Z,1012.64
2018-06-17T05:34:43.579Z,1012.6
2018-06-17T05:35:53.284Z,1012.64
2018-06-17T05:37:02.477Z,1012.64
2018-06-17T05:38:11.919Z,1012.68
2018-06-17T05:39:21.675Z,1012.68
2018-06-17T05:40:31.654Z,1012.64
2018-06-17T05:41:41.088Z,1012.65
2018-06-17T05:42:50.779Z,1012.68
2018-06-17T05:44:00.478Z,1012.66
2018-06-17T05:45:09.402Z,1012.7
2018-06-17T05:46:18.830Z,1012.72
2018-06-17T05:47:28.082Z,1012.76
2018-06-17T05:48:37.279Z,1012.74
2018-06-17T05:49:46.473Z,1012.8
2018-06-17T05:50:55.897Z,1012.74
2018-06-17T05:52:05.378Z,1012.73
2018-06-17T05:53:14.581Z,1012.74
2018-06-17T05:54:23.756Z,1012.71
2018-06-17T05:55:33.209Z,1012.74
2018-06-17T05:56:43.087Z,1012.7
2018-06-17T05:57:52.330Z,1012.73
2018-06-17T05:59:02.019Z,1012.72
2018-06-17T06:00:11.583Z,1012.71
2018-06-17T06:01:21.268Z,1012.77
2018-06-17T06:02:30.460Z,1012.8
2018-06-17T06:03:40.139Z,1012.78
2018-06-17T06:04:49.816Z,1012.78
2018-06-17T06:05:58.755Z,1012.79
2018-06-17T06:07:07.928Z,1012.76
2018-06-17T06:08:17.092Z,1012.76
2018-06-17T06:09:26.050Z,1012.75
2018-06-17T06:10:35.231Z,1012.79
2018-06-17T06:11:44.670Z,1012.86
2018-06-17T06:12:53.330Z,1012.92
2018-06-17T06:14:02.562Z,1012.9
2018-06-17T06:15:11.755Z,1012.91
2018-06-17T06:16:20.945Z,1012.94
2018-06-17T06:17:30.120Z,1012.93
2018-06-17T06:18:40.063Z,1012.95
2018-06-17T06:19:48.976Z,1012.9
2018-06-17T06:20:58.162Z,1012.93
2018-06-17T06:22:07.591Z,1012.9
2018-06-17T06:23:17.273Z,1012.86
2018-06-17T06:24:26.440Z,1012.93
2018-06-17T06:25:35.353Z,1012.91
2018-06-17T06:26:44.783Z,1012.89
2018-06-17T06:27:54.720Z,1012.91
2018-06-17T06:29:04.409Z,1012.9
2018-06-17T06:30:13.831Z,1012.92
2018-06-17T06:31:22.756Z,1012.91
2018-06-17T06:32:32.178Z,1012.89
2018-06-17T06:33:41.889Z,1012.86
2018-06-17T06:34:51.584Z,1012.88
2018-06-17T06:36:00.759Z,1012.88
2018-06-17T06:37:10.486Z,1012.88
2018-06-17T06:38:20.145Z,1012.9
2018-06-17T06:39:29.312Z,1012.89
2018-06-17T06:40:39.029Z,1012.85
2018-06-17T06:41:48.962Z,1012.87
2018-06-17T06:42:57.893Z,1012.87
2018-06-17T06:44:07.370Z,1012.91
2018-06-17T06:45:17.058Z,1012.89
2018-06-17T06:46:26.209Z,1012.9
2018-06-17T06:47:35.372Z,1012.91
2018-06-17T06:48:44.573Z,1012.95
2018-06-17T06:49:54.244Z,1012.96
2018-06-17T06:51:04.385Z,1013
2018-06-17T06:52:14.445Z,1012.98
2018-06-17T06:53:23.608Z,1012.93
2018-06-17T06:54:33.020Z,1012.96
2018-06-17T06:55:41.943Z,1012.95
2018-06-17T06:56:51.642Z,1013
2018-06-17T06:58:01.437Z,1012.99
2018-06-17T06:59:10.854Z,1013.03
2018-06-17T07:00:20.023Z,1013.01
2018-06-17T07:01:28.941Z,1012.96
2018-06-17T07:02:38.639Z,1012.96
2018-06-17T07:03:48.152Z,1012.94
2018-06-17T07:04:57.070Z,1012.96
2018-06-17T07:06:06.794Z,1013.01
2018-06-17T07:07:16.814Z,1012.97
2018-06-17T07:08:25.988Z,1012.97
2018-06-17T07:09:35.180Z,1012.95
2018-06-17T07:10:44.883Z,1012.96
2018-06-17T07:11:53.794Z,1013
2018-06-17T07:13:02.967Z,1013.01
2018-06-17T07:14:11.971Z,1012.99
2018-06-17T07:15:21.158Z,1013
2018-06-17T07:16:30.118Z,1013.08
2018-06-17T07:17:39.827Z,1013.09
2018-06-17T07:18:48.994Z,1013.08
2018-06-17T07:19:58.698Z,1013.1
2018-06-17T07:21:08.377Z,1013.1
2018-06-17T07:22:17.822Z,1013.16
2018-06-17T07:23:27.779Z,1013.16
2018-06-17T07:24:36.431Z,1013.17
2018-06-17T07:25:45.346Z,1013.14
2018-06-17T07:26:55.286Z,1013.15
2018-06-17T07:28:04.991Z,1013.17
2018-06-17T07:29:14.404Z,1013.2
2018-06-17T07:30:23.837Z,1013.23
2018-06-17T07:31:33.008Z,1013.18
2018-06-17T07:32:41.986Z,1013.2
2018-06-17T07:33:51.692Z,1013.24
2018-06-17T07:35:01.426Z,1013.26
2018-06-17T07:36:10.848Z,1013.3
2018-06-17T07:37:20.575Z,1013.27
2018-06-17T07:38:29.760Z,1013.27
2018-06-17T07:39:38.935Z,1013.3
2018-06-17T07:40:47.848Z,1013.32
2018-06-17T07:41:57.524Z,1013.34
2018-06-17T07:43:06.452Z,1013.33
2018-06-17T07:44:15.369Z,1013.29
2018-06-17T07:45:24.549Z,1013.31
2018-06-17T07:46:34.496Z,1013.33
2018-06-17T07:47:43.694Z,1013.36
2018-06-17T07:48:52.606Z,1013.34
2018-06-17T07:50:01.797Z,1013.35
2018-06-17T07:51:11.477Z,1013.36
2018-06-17T07:52:20.898Z,1013.36
2018-06-17T07:53:29.832Z,1013.36
2018-06-17T07:54:39.261Z,1013.33
2018-06-17T07:55:48.701Z,1013.32
2018-06-17T07:56:58.242Z,1013.33
2018-06-17T07:58:08.237Z,1013.34
2018-06-17T07:59:17.269Z,1013.34
2018-06-17T08:00:26.753Z,1013.3
2018-06-17T08:01:36.223Z,1013.35
2018-06-17T08:02:45.671Z,1013.29
2018-06-17T08:03:54.850Z,1013.34
2018-06-17T08:05:04.329Z,1013.3
2018-06-17T08:06:13.042Z,1013.34
2018-06-17T08:07:22.469Z,1013.38
2018-06-17T08:08:32.175Z,1013.37
2018-06-17T08:09:41.864Z,1013.33
2018-06-17T08:10:51.380Z,1013.36
2018-06-17T08:12:01.164Z,1013.4
2018-06-17T08:13:10.099Z,1013.32
2018-06-17T08:14:19.005Z,1013.34
2018-06-17T08:15:28.948Z,1013.33
2018-06-17T08:16:38.381Z,1013.34
2018-06-17T08:17:47.860Z,1013.37
2018-06-17T08:18:57.056Z,1013.37
2018-06-17T08:20:06.525Z,1013.32
2018-06-17T08:21:16.532Z,1013.35
2018-06-17T08:22:26.271Z,1013.36
2018-06-17T08:23:35.971Z,1013.37
2018-06-17T08:24:45.399Z,1013.36
2018-06-17T08:25:55.348Z,1013.33
2018-06-17T08:27:04.550Z,1013.29
2018-06-17T08:28:13.981Z,1013.33
2018-06-17T08:29:23.658Z,1013.29
2018-06-17T08:30:32.599Z,1013.24
2018-06-17T08:31:42.298Z,1013.31
2018-06-17T08:32:51.974Z,1013.3
2018-06-17T08:34:01.407Z,1013.28
2018-06-17T08:35:10.353Z,1013.32
2018-06-17T08:36:19.796Z,1013.27
2018-06-17T08:37:28.978Z,1013.33
2018-06-17T08:38:38.402Z,1013.3
2018-06-17T08:39:48.094Z,1013.29
2018-06-17T08:40:58.093Z,1013.31
2018-06-17T08:42:07.267Z,1013.29
2018-06-17T08:43:16.183Z,1013.29
2018-06-17T08:44:25.530Z,1013.28
2018-06-17T08:45:34.961Z,1013.29
2018-06-17T08:46:44.785Z,1013.29
2018-06-17T08:47:54.471Z,1013.27
2018-06-17T08:49:03.400Z,1013.32
2018-06-17T08:50:12.571Z,1013.31
2018-06-17T08:51:22.292Z,1013.33
2018-06-17T08:52:31.977Z,1013.32
2018-06-17T08:53:41.157Z,1013.31
2018-06-17T08:54:50.596Z,1013.4
2018-06-17T08:56:00.045Z,1013.31
2018-06-17T08:57:09.245Z,1013.3
2018-06-17T08:58:18.437Z,1013.26
2018-06-17T08:59:27.631Z,1013.27
2018-06-17T09:00:36.842Z,1013.27
2018-06-17T09:01:46.011Z,1013.28
2018-06-17T09:02:55.735Z,1013.26
2018-06-17T09:04:04.663Z,1013.25
2018-06-17T09:05:14.090Z,1013.23
2018-06-17T09:06:24.089Z,1013.23
2018-06-17T09:07:33.512Z,1013.22
2018-06-17T09:08:42.464Z,1013.19
2018-06-17T09:09:51.394Z,1013.18
2018-06-17T09:11:00.580Z,1013.18
2018-06-17T09:12:09.758Z,1013.2
2018-06-17T09:13:19.248Z,1013.15
2018-06-17T09:14:27.918Z,1013.14
2018-06-17T09:15:37.348Z,1013.15
2018-06-17T09:16:46.794Z,1013.13
2018-06-17T09:17:56.758Z,1013.13
2018-06-17T09:19:05.943Z,1013.16
2018-06-17T09:20:15.965Z,1013.2
2018-06-17T09:21:25.411Z,1013.14
2018-06-17T09:22:34.864Z,1013.16
2018-06-17T09:23:44.288Z,1013.19
2018-06-17T09:24:53.997Z,1013.19
2018-06-17T09:26:02.914Z,1013.18
2018-06-17T09:27:12.852Z,1013.25
2018-06-17T09:28:22.283Z,1013.24
2018-06-17T09:29:31.761Z,1013.23
2018-06-17T09:30:41.472Z,1013.27
2018-06-17T09:31:50.780Z,1013.21
2018-06-17T09:33:01.184Z,1013.18
2018-06-17T09:34:10.425Z,1013.17
2018-06-17T09:35:19.324Z,1013.22
2018-06-17T09:36:29.019Z,1013.18
2018-06-17T09:37:38.194Z,1013.24
2018-06-17T09:38:47.614Z,1013.26
2018-06-17T09:39:57.046Z,1013.25
2018-06-17T09:41:06.252Z,1013.29
2018-06-17T09:42:16.248Z,1013.29
2018-06-17T09:43:26.186Z,1013.23
2018-06-17T09:44:35.625Z,1013.23
2018-06-17T09:45:45.079Z,1013.26
2018-06-17T09:46:54.257Z,1013.23
2018-06-17T09:48:03.172Z,1013.22
2018-06-17T09:49:12.365Z,1013.27
2018-06-17T09:50:21.563Z,1013.24
2018-06-17T09:51:30.999Z,1013.22
2018-06-17T09:52:40.440Z,1013.17
2018-06-17T09:53:49.355Z,1013.24
2018-06-17T09:54:58.810Z,1013.21
2018-06-17T09:56:08.292Z,1013.2
2018-06-17T09:57:18.002Z,1013.2
2018-06-17T09:58:27.486Z,1013.23
2018-06-17T09:59:37.195Z,1013.16
2018-06-17T10:00:46.108Z,1013.19
2018-06-17T10:01:55.294Z,1013.17
2018-06-17T10:03:04.518Z,1013.19
2018-06-17T10:04:13.946Z,1013.21
2018-06-17T10:05:23.366Z,1013.2
2018-06-17T10:06:32.542Z,1013.16
2018-06-17T10:07:41.708Z,1013.23
2018-06-17T10:08:51.379Z,1013.22
2018-06-17T10:10:01.444Z,1013.24
2018-06-17T10:11:10.910Z,1013.17
2018-06-17T10:12:20.635Z,1013.16
2018-06-17T10:13:30.318Z,1013.13
2018-06-17T10:14:39.510Z,1013.14
2018-06-17T10:15:48.702Z,1013.17
2018-06-17T10:16:58.255Z,1013.15
2018-06-17T10:18:07.995Z,1013.16
2018-06-17T10:19:17.419Z,1013.18
2018-06-17T10:20:26.595Z,1013.19
2018-06-17T10:21:35.782Z,1013.12
2018-06-17T10:22:45.481Z,1013.11
2018-06-17T10:23:55.174Z,1013.13
2018-06-17T10:25:04.347Z,1013.16
2018-06-17T10:26:13.513Z,1013.15
2018-06-17T10:27:22.922Z,1013.17
2018-06-17T10:28:32.331Z,1013.16
2018-06-17T10:29:42.023Z,1013.19
2018-06-17T10:30:50.947Z,1013.2
2018-06-17T10:32:00.941Z,1013.16
2018-06-17T10:33:10.366Z,1013.13
2018-06-17T10:34:19.799Z,1013.22
2018-06-17T10:35:28.789Z,1013.13
2018-06-17T10:36:38.738Z,1013.08
2018-06-17T10:37:48.179Z,1013.16
2018-06-17T10:38:57.877Z,1013.12
2018-06-17T10:40:07.039Z,1013.18
2018-06-17T10:41:16.218Z,1013.17
2018-06-17T10:42:25.665Z,1013.24
2018-06-17T10:43:35.224Z,1013.11
2018-06-17T10:44:45.031Z,1013.16
2018-06-17T10:45:54.712Z,1013.15
2018-06-17T10:47:04.438Z,1013.2
2018-06-17T10:48:13.343Z,1013.21
2018-06-17T10:49:23.007Z,1013.15
2018-06-17T10:50:32.978Z,1013.21
2018-06-17T10:51:42.647Z,1013.16
2018-06-17T10:52:51.826Z,1013.12
2018-06-17T10:54:01.006Z,1013.13
2018-06-17T10:55:10.455Z,1013.15
2018-06-17T10:56:19.439Z,1013.2
2018-06-17T10:57:28.818Z,1013.14
2018-06-17T10:58:38.247Z,1013.25
2018-06-17T10:59:47.677Z,1013.21
2018-06-17T11:00:57.128Z,1013.17
2018-06-17T11:02:06.047Z,1013.21
2018-06-17T11:03:15.483Z,1013.18
2018-06-17T11:04:25.171Z,1013.31
2018-06-17T11:05:34.683Z,1013.29
2018-06-17T11:06:45.041Z,1013.24
2018-06-17T11:07:55.002Z,1013.25
2018-06-17T11:09:04.176Z,1013.24
2018-06-17T11:10:13.097Z,1013.22
2018-06-17T11:11:22.541Z,1013.26
2018-06-17T11:12:31.974Z,1013.25
2018-06-17T11:13:41.403Z,1013.22
2018-06-17T11:14:50.313Z,1013.24
2018-06-17T11:15:59.731Z,1013.13
2018-06-17T11:17:08.906Z,1013.18
2018-06-17T11:18:18.083Z,1013.16
2018-06-17T11:19:27.254Z,1013.15
2018-06-17T11:20:37.024Z,1013.05
2018-06-17T11:21:46.552Z,1013.07
2018-06-17T11:22:55.977Z,1013.12
2018-06-17T11:24:05.147Z,1013.17
2018-06-17T11:25:14.565Z,1013.23
2018-06-17T11:26:24.517Z,1013.21
2018-06-17T11:27:34.334Z,1013.2
2018-06-17T11:28:43.788Z,1013.27
2018-06-17T11:29:52.980Z,1013.25
2018-06-17T11:31:02.408Z,1013.26
2018-06-17T11:32:11.322Z,1013.28
2018-06-17T11:33:21.058Z,1013.23
2018-06-17T11:34:30.563Z,1013.23
2018-06-17T11:35:40.348Z,1013.18
2018-06-17T11:36:50.028Z,1013.27
2018-06-17T11:37:58.958Z,1013.22
2018-06-17T11:39:09.050Z,1013.17
2018-06-17T11:40:18.389Z,1013.18
2018-06-17T11:41:27.820Z,1013.16
2018-06-17T11:42:36.981Z,1013.17
2018-06-17T11:43:46.140Z,1013.2
2018-06-17T11:44:55.042Z,1013.12
2018-06-17T11:46:04.248Z,1013.14
2018-06-17T11:47:13.683Z,1013.2
2018-06-17T11:48:23.654Z,1013.14
2018-06-17T11:49:32.630Z,1013.24
2018-06-17T11:50:41.888Z,1013.21
2018-06-17T11:51:51.324Z,1013.33
2018-06-17T11:53:01.029Z,1013.3
2018-06-17T11:54:10.484Z,1013.3
2018-06-17T11:55:19.927Z,1013.32
2018-06-17T11:56:29.107Z,1013.25
2018-06-17T11:57:38.575Z,1013.25
2018-06-17T11:58:48.015Z,1013.23
2018-06-17T11:59:57.991Z,1013.33
2018-06-17T12:01:07.485Z,1013.34
2018-06-17T12:02:16.698Z,1013.35
2018-06-17T12:03:25.353Z,1013.36
2018-06-17T12:04:35.113Z,1013.4
2018-06-17T12:05:44.561Z,1013.37
2018-06-17T12:06:54.025Z,1013.4
2018-06-17T12:08:03.496Z,1013.41
2018-06-17T12:09:12.983Z,1013.47
2018-06-17T12:10:22.434Z,1013.48
2018-06-17T12:11:32.128Z,1013.52
2018-06-17T12:12:41.297Z,1013.53
2018-06-17T12:13:50.362Z,1013.56
2018-06-17T12:14:59.536Z,1013.54
2018-06-17T12:16:08.957Z,1013.61
2018-06-17T12:17:18.635Z,1013.63
2018-06-17T12:18:28.136Z,1013.59
2018-06-17T12:19:37.324Z,1013.6
2018-06-17T12:20:46.504Z,1013.6
2018-06-17T12:21:55.912Z,1013.59
2018-06-17T12:23:05.602Z,1013.55
2018-06-17T12:24:15.068Z,1013.59
2018-06-17T12:25:24.048Z,1013.63
2018-06-17T12:26:34.259Z,1013.64
2018-06-17T12:27:43.963Z,1013.64
2018-06-17T12:28:53.133Z,1013.64
2018-06-17T12:30:02.298Z,1013.61
2018-06-17T12:31:11.460Z,1013.66
2018-06-17T12:32:20.655Z,1013.69
2018-06-17T12:33:30.123Z,1013.71
2018-06-17T12:34:40.425Z,1013.66
2018-06-17T12:35:49.600Z,1013.69
2018-06-17T12:36:59.026Z,1013.68
2018-06-17T12:38:08.720Z,1013.72
2018-06-17T12:39:18.140Z,1013.75
2018-06-17T12:40:27.555Z,1013.73
2018-06-17T12:41:37.505Z,1013.69
2018-06-17T12:42:46.684Z,1013.74
2018-06-17T12:43:55.590Z,1013.64
2018-06-17T12:45:05.022Z,1013.73
2018-06-17T12:46:14.752Z,1013.67
2018-06-17T12:47:24.442Z,1013.67
2018-06-17T12:48:33.866Z,1013.67
2018-06-17T12:49:43.301Z,1013.7
2018-06-17T12:50:52.214Z,1013.66
2018-06-17T12:52:01.678Z,1013.71
2018-06-17T12:53:10.611Z,1013.74
2018-06-17T12:54:20.306Z,1013.75
2018-06-17T12:55:29.211Z,1013.71
2018-06-17T12:56:38.638Z,1013.72
2018-06-17T12:57:47.590Z,1013.71
2018-06-17T12:58:57.344Z,1013.75
2018-06-17T13:00:06.536Z,1013.74
2018-06-17T13:01:15.437Z,1013.78
2018-06-17T13:02:24.890Z,1013.79
2018-06-17T13:03:33.552Z,1013.75
2018-06-17T13:04:43.026Z,1013.78
2018-06-17T13:05:52.566Z,1013.81
2018-06-17T13:07:01.754Z,1013.74
2018-06-17T13:08:11.467Z,1013.72
2018-06-17T13:09:21.146Z,1013.7
2018-06-17T13:10:30.367Z,1013.74
2018-06-17T13:11:39.019Z,1013.74
2018-06-17T13:12:47.921Z,1013.8
2018-06-17T13:13:58.052Z,1013.81
2018-06-17T13:15:07.244Z,1013.84
2018-06-17T13:16:16.977Z,1013.87
2018-06-17T13:17:26.410Z,1013.9
2018-06-17T13:18:35.864Z,1013.86
2018-06-17T13:19:45.312Z,1013.9
2018-06-17T13:20:55.308Z,1013.88
2018-06-17T13:22:04.223Z,1013.88
2018-06-17T13:23:13.377Z,1013.92
2018-06-17T13:24:22.811Z,1013.93
2018-06-17T13:25:31.983Z,1013.94
2018-06-17T13:26:41.421Z,1013.9
2018-06-17T13:27:50.378Z,1013.92
2018-06-17T13:28:59.338Z,1013.93
2018-06-17T13:30:08.772Z,1013.93
2018-06-17T13:31:18.190Z,1013.93
2018-06-17T13:32:27.362Z,1013.94
2018-06-17T13:33:36.614Z,1013.91
2018-06-17T13:34:46.285Z,1013.9
2018-06-17T13:35:55.185Z,1013.91
2018-06-17T13:37:04.339Z,1013.91
2018-06-17T13:38:13.759Z,1013.93
2018-06-17T13:39:22.953Z,1013.95
2018-06-17T13:40:31.899Z,1014.02
2018-06-17T13:41:41.843Z,1013.93
2018-06-17T13:42:51.328Z,1013.94
2018-06-17T13:44:01.205Z,1013.94
2018-06-17T13:45:10.406Z,1013.99
2018-06-17T13:46:19.831Z,1013.94
2018-06-17T13:47:29.026Z,1013.97
2018-06-17T13:48:38.202Z,1014.01
2018-06-17T13:49:47.655Z,1014.01
2018-06-17T13:50:56.309Z,1014.01
2018-06-17T13:52:05.731Z,1014.06
2018-06-17T13:53:14.911Z,1014.05
2018-06-17T13:54:24.369Z,1014.1
2018-06-17T13:55:33.790Z,1014.08
2018-06-17T13:56:43.483Z,1014.08
2018-06-17T13:57:52.390Z,1014.07
2018-06-17T13:59:01.602Z,1014.07
2018-06-17T14:00:11.047Z,1014.11
2018-06-17T14:01:20.734Z,1014.09
2018-06-17T14:02:29.683Z,1014.09